sensor_id;sensor_type;location;lat;lon;timestamp;P1;durP1;ratioP1;P2;durP2;ratioP2
71975;SDS011;68326;52.124;5.424;2023-11-21T00:02:17;9.00;;;2.90;;
71975;SDS011;68326;52.124;5.424;2023-11-21T00:04:43;9.70;;;3.20;;
71975;SDS011;68326;52.124;5.424;2023-11-21T00:07:10;9.65;;;4.00;;
71975;SDS011;68326;52.124;5.424;2023-11-21T00:09:36;10.90;;;3.30;;
71975;SDS011;68326;52.124;5.424;2023-11-21T00:12:03;8.00;;;2.17;;
71975;SDS011;68326;52.124;5.424;2023-11-21T00:14:30;4.22;;;1.52;;
71975;SDS011;68326;52.124;5.424;2023-11-21T00:16:57;6.88;;;2.03;;
71975;SDS011;68326;52.124;5.424;2023-11-21T00:19:25;6.05;;;1.60;;
71975;SDS011;68326;52.124;5.424;2023-11-21T00:21:51;8.00;;;2.20;;
71975;SDS011;68326;52.124;5.424;2023-11-21T00:24:18;8.70;;;2.57;;
71975;SDS011;68326;52.124;5.424;2023-11-21T00:26:44;5.70;;;2.10;;
71975;SDS011;68326;52.124;5.424;2023-11-21T00:29:11;4.57;;;2.38;;
71975;SDS011;68326;52.124;5.424;2023-11-21T00:31:37;8.77;;;2.70;;
71975;SDS011;68326;52.124;5.424;2023-11-21T00:34:05;11.07;;;3.65;;
71975;SDS011;68326;52.124;5.424;2023-11-21T00:36:31;9.33;;;3.43;;
71975;SDS011;68326;52.124;5.424;2023-11-21T00:38:58;10.10;;;3.53;;
71975;SDS011;68326;52.124;5.424;2023-11-21T00:41:25;8.27;;;3.60;;
71975;SDS011;68326;52.124;5.424;2023-11-21T00:43:55;12.57;;;4.57;;
71975;SDS011;68326;52.124;5.424;2023-11-21T00:46:21;10.73;;;3.75;;
71975;SDS011;68326;52.124;5.424;2023-11-21T00:48:48;9.60;;;3.57;;
71975;SDS011;68326;52.124;5.424;2023-11-21T00:51:14;8.98;;;3.42;;
71975;SDS011;68326;52.124;5.424;2023-11-21T00:53:41;12.88;;;3.95;;
71975;SDS011;68326;52.124;5.424;2023-11-21T00:56:07;10.50;;;3.50;;
71975;SDS011;68326;52.124;5.424;2023-11-21T00:58:34;11.80;;;4.22;;
71975;SDS011;68326;52.124;5.424;2023-11-21T01:01:01;13.13;;;3.87;;
71975;SDS011;68326;52.124;5.424;2023-11-21T01:03:29;24.75;;;4.75;;
71975;SDS011;68326;52.124;5.424;2023-11-21T01:05:56;8.48;;;3.00;;
71975;SDS011;68326;52.124;5.424;2023-11-21T01:08:23;8.70;;;2.95;;
71975;SDS011;68326;52.124;5.424;2023-11-21T01:10:50;9.23;;;2.75;;
71975;SDS011;68326;52.124;5.424;2023-11-21T01:13:17;9.17;;;2.70;;
71975;SDS011;68326;52.124;5.424;2023-11-21T01:15:44;7.43;;;3.03;;
71975;SDS011;68326;52.124;5.424;2023-11-21T01:18:11;5.68;;;2.78;;
71975;SDS011;68326;52.124;5.424;2023-11-21T01:20:37;5.35;;;2.70;;
71975;SDS011;68326;52.124;5.424;2023-11-21T01:23:04;9.60;;;3.30;;
71975;SDS011;68326;52.124;5.424;2023-11-21T01:25:30;11.90;;;2.80;;
71975;SDS011;68326;52.124;5.424;2023-11-21T01:27:57;5.30;;;2.45;;
71975;SDS011;68326;52.124;5.424;2023-11-21T01:30:23;7.03;;;2.85;;
71975;SDS011;68326;52.124;5.424;2023-11-21T01:32:51;4.65;;;2.13;;
71975;SDS011;68326;52.124;5.424;2023-11-21T01:35:18;3.50;;;1.70;;
71975;SDS011;68326;52.124;5.424;2023-11-21T01:37:45;3.80;;;1.77;;
71975;SDS011;68326;52.124;5.424;2023-11-21T01:40:12;4.22;;;2.33;;
71975;SDS011;68326;52.124;5.424;2023-11-21T01:42:41;4.45;;;2.28;;
71975;SDS011;68326;52.124;5.424;2023-11-21T01:45:10;5.20;;;2.15;;
71975;SDS011;68326;52.124;5.424;2023-11-21T01:47:39;6.53;;;2.15;;
71975;SDS011;68326;52.124;5.424;2023-11-21T01:50:08;5.33;;;1.70;;
71975;SDS011;68326;52.124;5.424;2023-11-21T01:52:38;3.38;;;1.77;;
71975;SDS011;68326;52.124;5.424;2023-11-21T01:55:06;3.70;;;1.83;;
71975;SDS011;68326;52.124;5.424;2023-11-21T01:57:44;4.90;;;2.38;;
71975;SDS011;68326;52.124;5.424;2023-11-21T02:00:12;6.00;;;2.05;;
71975;SDS011;68326;52.124;5.424;2023-11-21T02:02:43;4.60;;;2.23;;
71975;SDS011;68326;52.124;5.424;2023-11-21T02:05:10;4.15;;;2.08;;
71975;SDS011;68326;52.124;5.424;2023-11-21T02:07:39;3.10;;;1.63;;
71975;SDS011;68326;52.124;5.424;2023-11-21T02:10:07;4.03;;;1.98;;
71975;SDS011;68326;52.124;5.424;2023-11-21T02:12:34;3.75;;;2.15;;
71975;SDS011;68326;52.124;5.424;2023-11-21T02:15:05;7.67;;;2.50;;
71975;SDS011;68326;52.124;5.424;2023-11-21T02:17:41;4.53;;;2.00;;
71975;SDS011;68326;52.124;5.424;2023-11-21T02:20:12;3.95;;;2.42;;
71975;SDS011;68326;52.124;5.424;2023-11-21T02:22:48;8.65;;;3.28;;
71975;SDS011;68326;52.124;5.424;2023-11-21T02:25:16;5.85;;;3.30;;
71975;SDS011;68326;52.124;5.424;2023-11-21T02:27:44;8.63;;;3.13;;
71975;SDS011;68326;52.124;5.424;2023-11-21T02:30:15;4.97;;;2.60;;
71975;SDS011;68326;52.124;5.424;2023-11-21T02:32:42;9.30;;;3.10;;
71975;SDS011;68326;52.124;5.424;2023-11-21T02:35:14;6.25;;;3.03;;
71975;SDS011;68326;52.124;5.424;2023-11-21T02:37:42;6.00;;;2.67;;
71975;SDS011;68326;52.124;5.424;2023-11-21T02:40:09;6.30;;;3.00;;
71975;SDS011;68326;52.124;5.424;2023-11-21T02:42:41;6.15;;;2.90;;
71975;SDS011;68326;52.124;5.424;2023-11-21T02:45:08;8.60;;;2.70;;
71975;SDS011;68326;52.124;5.424;2023-11-21T02:47:34;4.78;;;2.60;;
71975;SDS011;68326;52.124;5.424;2023-11-21T02:50:01;6.00;;;2.97;;
71975;SDS011;68326;52.124;5.424;2023-11-21T02:52:28;7.30;;;3.23;;
71975;SDS011;68326;52.124;5.424;2023-11-21T02:54:54;5.80;;;2.88;;
71975;SDS011;68326;52.124;5.424;2023-11-21T02:57:21;7.03;;;3.08;;
71975;SDS011;68326;52.124;5.424;2023-11-21T02:59:47;6.88;;;3.10;;
71975;SDS011;68326;52.124;5.424;2023-11-21T03:02:14;9.95;;;3.05;;
71975;SDS011;68326;52.124;5.424;2023-11-21T03:04:42;7.73;;;3.50;;
71975;SDS011;68326;52.124;5.424;2023-11-21T03:07:09;6.80;;;3.55;;
71975;SDS011;68326;52.124;5.424;2023-11-21T03:09:35;7.70;;;3.63;;
71975;SDS011;68326;52.124;5.424;2023-11-21T03:12:02;7.32;;;3.33;;
71975;SDS011;68326;52.124;5.424;2023-11-21T03:14:29;8.40;;;3.53;;
71975;SDS011;68326;52.124;5.424;2023-11-21T03:16:55;9.07;;;3.50;;
71975;SDS011;68326;52.124;5.424;2023-11-21T03:19:22;7.88;;;3.25;;
71975;SDS011;68326;52.124;5.424;2023-11-21T03:21:49;8.38;;;3.38;;
71975;SDS011;68326;52.124;5.424;2023-11-21T03:24:19;8.07;;;3.63;;
71975;SDS011;68326;52.124;5.424;2023-11-21T03:26:46;9.52;;;3.90;;
71975;SDS011;68326;52.124;5.424;2023-11-21T03:29:17;9.70;;;3.47;;
71975;SDS011;68326;52.124;5.424;2023-11-21T03:31:43;9.68;;;3.92;;
71975;SDS011;68326;52.124;5.424;2023-11-21T03:34:14;8.23;;;3.80;;
71975;SDS011;68326;52.124;5.424;2023-11-21T03:36:43;9.60;;;3.90;;
71975;SDS011;68326;52.124;5.424;2023-11-21T03:39:09;7.90;;;3.65;;
71975;SDS011;68326;52.124;5.424;2023-11-21T03:41:36;7.97;;;3.33;;
71975;SDS011;68326;52.124;5.424;2023-11-21T03:44:02;9.20;;;3.53;;
71975;SDS011;68326;52.124;5.424;2023-11-21T03:46:29;8.40;;;3.30;;
71975;SDS011;68326;52.124;5.424;2023-11-21T03:48:55;10.15;;;3.80;;
71975;SDS011;68326;52.124;5.424;2023-11-21T03:51:22;7.95;;;3.40;;
71975;SDS011;68326;52.124;5.424;2023-11-21T03:53:48;7.33;;;2.93;;
71975;SDS011;68326;52.124;5.424;2023-11-21T03:56:15;7.97;;;3.08;;
71975;SDS011;68326;52.124;5.424;2023-11-21T03:58:41;9.32;;;3.63;;
71975;SDS011;68326;52.124;5.424;2023-11-21T04:01:08;7.97;;;3.55;;
71975;SDS011;68326;52.124;5.424;2023-11-21T04:03:34;7.63;;;3.20;;
71975;SDS011;68326;52.124;5.424;2023-11-21T04:06:02;11.87;;;3.40;;
71975;SDS011;68326;52.124;5.424;2023-11-21T04:08:28;9.98;;;4.00;;
71975;SDS011;68326;52.124;5.424;2023-11-21T04:10:55;9.48;;;3.00;;
71975;SDS011;68326;52.124;5.424;2023-11-21T04:13:21;8.48;;;3.47;;
71975;SDS011;68326;52.124;5.424;2023-11-21T04:15:48;6.85;;;3.22;;
71975;SDS011;68326;52.124;5.424;2023-11-21T04:18:15;9.10;;;3.90;;
71975;SDS011;68326;52.124;5.424;2023-11-21T04:20:41;11.15;;;3.55;;
71975;SDS011;68326;52.124;5.424;2023-11-21T04:23:08;10.80;;;3.47;;
71975;SDS011;68326;52.124;5.424;2023-11-21T04:25:36;10.50;;;3.42;;
71975;SDS011;68326;52.124;5.424;2023-11-21T04:28:03;9.57;;;3.58;;
71975;SDS011;68326;52.124;5.424;2023-11-21T04:30:31;7.13;;;3.80;;
71975;SDS011;68326;52.124;5.424;2023-11-21T04:32:58;11.02;;;3.80;;
71975;SDS011;68326;52.124;5.424;2023-11-21T04:35:25;9.65;;;4.38;;
71975;SDS011;68326;52.124;5.424;2023-11-21T04:37:51;8.38;;;3.80;;
71975;SDS011;68326;52.124;5.424;2023-11-21T04:40:18;11.63;;;4.40;;
71975;SDS011;68326;52.124;5.424;2023-11-21T04:42:46;9.43;;;3.70;;
71975;SDS011;68326;52.124;5.424;2023-11-21T04:45:13;8.80;;;3.50;;
71975;SDS011;68326;52.124;5.424;2023-11-21T04:47:39;7.43;;;3.60;;
71975;SDS011;68326;52.124;5.424;2023-11-21T04:50:06;7.30;;;3.88;;
71975;SDS011;68326;52.124;5.424;2023-11-21T04:52:33;10.38;;;4.13;;
71975;SDS011;68326;52.124;5.424;2023-11-21T04:55:00;11.17;;;4.03;;
71975;SDS011;68326;52.124;5.424;2023-11-21T04:57:28;9.32;;;4.15;;
71975;SDS011;68326;52.124;5.424;2023-11-21T04:59:54;9.25;;;3.85;;
71975;SDS011;68326;52.124;5.424;2023-11-21T05:02:21;8.35;;;3.75;;
71975;SDS011;68326;52.124;5.424;2023-11-21T05:05:01;8.77;;;3.90;;
71975;SDS011;68326;52.124;5.424;2023-11-21T05:07:28;10.60;;;3.90;;
71975;SDS011;68326;52.124;5.424;2023-11-21T05:09:57;10.07;;;4.35;;
71975;SDS011;68326;52.124;5.424;2023-11-21T05:12:24;9.20;;;4.15;;
71975;SDS011;68326;52.124;5.424;2023-11-21T05:14:51;10.55;;;4.32;;
71975;SDS011;68326;52.124;5.424;2023-11-21T05:17:17;8.45;;;4.25;;
71975;SDS011;68326;52.124;5.424;2023-11-21T05:19:44;12.97;;;4.87;;
71975;SDS011;68326;52.124;5.424;2023-11-21T05:22:15;13.45;;;4.60;;
71975;SDS011;68326;52.124;5.424;2023-11-21T05:24:41;13.02;;;4.32;;
71975;SDS011;68326;52.124;5.424;2023-11-21T05:27:08;11.02;;;4.05;;
71975;SDS011;68326;52.124;5.424;2023-11-21T05:29:35;9.13;;;3.85;;
71975;SDS011;68326;52.124;5.424;2023-11-21T05:32:04;10.63;;;4.10;;
71975;SDS011;68326;52.124;5.424;2023-11-21T05:34:31;12.82;;;4.43;;
71975;SDS011;68326;52.124;5.424;2023-11-21T05:36:57;10.98;;;4.15;;
71975;SDS011;68326;52.124;5.424;2023-11-21T05:39:24;10.80;;;3.72;;
71975;SDS011;68326;52.124;5.424;2023-11-21T05:41:51;8.38;;;4.18;;
71975;SDS011;68326;52.124;5.424;2023-11-21T05:44:18;8.50;;;3.73;;
71975;SDS011;68326;52.124;5.424;2023-11-21T05:46:44;11.65;;;4.18;;
71975;SDS011;68326;52.124;5.424;2023-11-21T05:49:11;11.02;;;4.32;;
71975;SDS011;68326;52.124;5.424;2023-11-21T05:51:37;8.55;;;4.03;;
71975;SDS011;68326;52.124;5.424;2023-11-21T05:54:05;10.73;;;4.25;;
71975;SDS011;68326;52.124;5.424;2023-11-21T05:56:31;10.70;;;4.13;;
71975;SDS011;68326;52.124;5.424;2023-11-21T05:58:58;7.85;;;4.07;;
71975;SDS011;68326;52.124;5.424;2023-11-21T06:01:25;7.50;;;3.75;;
71975;SDS011;68326;52.124;5.424;2023-11-21T06:03:54;11.75;;;4.35;;
71975;SDS011;68326;52.124;5.424;2023-11-21T06:06:23;7.95;;;3.85;;
71975;SDS011;68326;52.124;5.424;2023-11-21T06:08:50;11.50;;;3.90;;
71975;SDS011;68326;52.124;5.424;2023-11-21T06:11:17;8.43;;;3.55;;
71975;SDS011;68326;52.124;5.424;2023-11-21T06:13:44;8.57;;;3.55;;
71975;SDS011;68326;52.124;5.424;2023-11-21T06:16:10;8.73;;;3.83;;
71975;SDS011;68326;52.124;5.424;2023-11-21T06:18:39;9.80;;;4.03;;
71975;SDS011;68326;52.124;5.424;2023-11-21T06:21:06;8.27;;;3.57;;
71975;SDS011;68326;52.124;5.424;2023-11-21T06:23:35;9.13;;;4.22;;
71975;SDS011;68326;52.124;5.424;2023-11-21T06:26:02;10.43;;;4.05;;
71975;SDS011;68326;52.124;5.424;2023-11-21T06:28:30;11.10;;;3.65;;
71975;SDS011;68326;52.124;5.424;2023-11-21T06:30:57;9.50;;;3.67;;
71975;SDS011;68326;52.124;5.424;2023-11-21T06:33:31;8.77;;;3.83;;
71975;SDS011;68326;52.124;5.424;2023-11-21T06:35:58;16.38;;;4.53;;
71975;SDS011;68326;52.124;5.424;2023-11-21T06:38:25;11.18;;;4.28;;
71975;SDS011;68326;52.124;5.424;2023-11-21T06:40:54;10.32;;;4.00;;
71975;SDS011;68326;52.124;5.424;2023-11-21T06:43:21;10.27;;;4.28;;
71975;SDS011;68326;52.124;5.424;2023-11-21T06:45:48;8.07;;;4.03;;
71975;SDS011;68326;52.124;5.424;2023-11-21T06:48:15;10.93;;;3.63;;
71975;SDS011;68326;52.124;5.424;2023-11-21T06:50:41;9.40;;;3.95;;
71975;SDS011;68326;52.124;5.424;2023-11-21T06:53:08;11.05;;;3.92;;
71975;SDS011;68326;52.124;5.424;2023-11-21T06:55:36;9.57;;;4.03;;
71975;SDS011;68326;52.124;5.424;2023-11-21T06:58:02;10.10;;;4.13;;
71975;SDS011;68326;52.124;5.424;2023-11-21T07:00:29;7.68;;;4.20;;
71975;SDS011;68326;52.124;5.424;2023-11-21T07:02:56;11.10;;;4.45;;
71975;SDS011;68326;52.124;5.424;2023-11-21T07:05:22;9.70;;;3.78;;
71975;SDS011;68326;52.124;5.424;2023-11-21T07:07:49;10.38;;;4.38;;
71975;SDS011;68326;52.124;5.424;2023-11-21T07:10:16;11.53;;;3.83;;
71975;SDS011;68326;52.124;5.424;2023-11-21T07:12:43;11.27;;;3.97;;
71975;SDS011;68326;52.124;5.424;2023-11-21T07:15:09;9.90;;;4.22;;
71975;SDS011;68326;52.124;5.424;2023-11-21T07:17:36;11.02;;;4.03;;
71975;SDS011;68326;52.124;5.424;2023-11-21T07:20:06;13.57;;;4.10;;
71975;SDS011;68326;52.124;5.424;2023-11-21T07:22:33;8.33;;;3.20;;
71975;SDS011;68326;52.124;5.424;2023-11-21T07:25:00;8.75;;;3.38;;
71975;SDS011;68326;52.124;5.424;2023-11-21T07:27:26;9.43;;;4.00;;
71975;SDS011;68326;52.124;5.424;2023-11-21T07:29:53;11.50;;;3.88;;
71975;SDS011;68326;52.124;5.424;2023-11-21T07:32:19;8.55;;;3.05;;
71975;SDS011;68326;52.124;5.424;2023-11-21T07:34:46;8.10;;;3.27;;
71975;SDS011;68326;52.124;5.424;2023-11-21T07:37:13;7.32;;;3.22;;
71975;SDS011;68326;52.124;5.424;2023-11-21T07:39:40;8.93;;;3.25;;
71975;SDS011;68326;52.124;5.424;2023-11-21T07:42:08;8.18;;;3.38;;
71975;SDS011;68326;52.124;5.424;2023-11-21T07:44:35;9.35;;;2.90;;
71975;SDS011;68326;52.124;5.424;2023-11-21T07:47:01;8.77;;;3.10;;
71975;SDS011;68326;52.124;5.424;2023-11-21T07:49:28;8.70;;;3.25;;
71975;SDS011;68326;52.124;5.424;2023-11-21T07:51:55;8.18;;;3.83;;
71975;SDS011;68326;52.124;5.424;2023-11-21T07:54:21;9.43;;;3.35;;
71975;SDS011;68326;52.124;5.424;2023-11-21T07:56:47;10.40;;;3.47;;
71975;SDS011;68326;52.124;5.424;2023-11-21T07:59:14;7.87;;;3.43;;
71975;SDS011;68326;52.124;5.424;2023-11-21T08:01:40;5.53;;;2.80;;
71975;SDS011;68326;52.124;5.424;2023-11-21T08:04:09;9.02;;;2.88;;
71975;SDS011;68326;52.124;5.424;2023-11-21T08:06:36;10.23;;;3.08;;
71975;SDS011;68326;52.124;5.424;2023-11-21T08:09:02;9.25;;;3.42;;
71975;SDS011;68326;52.124;5.424;2023-11-21T08:11:29;5.63;;;2.47;;
71975;SDS011;68326;52.124;5.424;2023-11-21T08:13:56;6.85;;;2.85;;
71975;SDS011;68326;52.124;5.424;2023-11-21T08:16:23;6.07;;;2.58;;
71975;SDS011;68326;52.124;5.424;2023-11-21T08:18:50;6.80;;;2.40;;
71975;SDS011;68326;52.124;5.424;2023-11-21T08:21:17;10.23;;;2.55;;
71975;SDS011;68326;52.124;5.424;2023-11-21T08:23:45;7.37;;;2.70;;
71975;SDS011;68326;52.124;5.424;2023-11-21T08:26:11;7.22;;;2.65;;
71975;SDS011;68326;52.124;5.424;2023-11-21T08:28:39;9.23;;;2.92;;
71975;SDS011;68326;52.124;5.424;2023-11-21T08:31:06;8.15;;;2.38;;
71975;SDS011;68326;52.124;5.424;2023-11-21T08:33:33;11.35;;;2.92;;
71975;SDS011;68326;52.124;5.424;2023-11-21T08:35:59;7.50;;;2.37;;
71975;SDS011;68326;52.124;5.424;2023-11-21T08:38:27;5.70;;;1.75;;
71975;SDS011;68326;52.124;5.424;2023-11-21T08:40:55;7.25;;;2.17;;
71975;SDS011;68326;52.124;5.424;2023-11-21T08:43:21;5.75;;;1.88;;
71975;SDS011;68326;52.124;5.424;2023-11-21T08:45:48;7.78;;;2.40;;
71975;SDS011;68326;52.124;5.424;2023-11-21T08:48:14;7.13;;;1.93;;
71975;SDS011;68326;52.124;5.424;2023-11-21T08:50:42;5.32;;;2.22;;
71975;SDS011;68326;52.124;5.424;2023-11-21T08:53:08;7.13;;;2.40;;
71975;SDS011;68326;52.124;5.424;2023-11-21T08:55:37;7.13;;;2.50;;
71975;SDS011;68326;52.124;5.424;2023-11-21T08:58:04;6.65;;;2.70;;
71975;SDS011;68326;52.124;5.424;2023-11-21T09:00:32;6.47;;;2.30;;
71975;SDS011;68326;52.124;5.424;2023-11-21T09:03:00;6.65;;;2.50;;
71975;SDS011;68326;52.124;5.424;2023-11-21T09:05:28;6.28;;;2.33;;
71975;SDS011;68326;52.124;5.424;2023-11-21T09:07:55;9.48;;;3.17;;
71975;SDS011;68326;52.124;5.424;2023-11-21T09:10:21;6.80;;;2.72;;
71975;SDS011;68326;52.124;5.424;2023-11-21T09:12:49;8.03;;;3.40;;
71975;SDS011;68326;52.124;5.424;2023-11-21T09:15:15;9.27;;;4.50;;
71975;SDS011;68326;52.124;5.424;2023-11-21T09:17:42;7.93;;;3.83;;
71975;SDS011;68326;52.124;5.424;2023-11-21T09:20:10;12.13;;;4.47;;
71975;SDS011;68326;52.124;5.424;2023-11-21T09:22:37;9.43;;;3.47;;
71975;SDS011;68326;52.124;5.424;2023-11-21T09:25:04;12.13;;;3.80;;
71975;SDS011;68326;52.124;5.424;2023-11-21T09:27:31;9.65;;;3.40;;
71975;SDS011;68326;52.124;5.424;2023-11-21T09:29:58;8.80;;;4.40;;
71975;SDS011;68326;52.124;5.424;2023-11-21T09:32:24;10.82;;;4.75;;
71975;SDS011;68326;52.124;5.424;2023-11-21T09:34:51;8.82;;;3.65;;
71975;SDS011;68326;52.124;5.424;2023-11-21T09:37:17;9.87;;;4.17;;
71975;SDS011;68326;52.124;5.424;2023-11-21T09:39:45;10.32;;;4.00;;
71975;SDS011;68326;52.124;5.424;2023-11-21T09:42:19;9.25;;;4.00;;
71975;SDS011;68326;52.124;5.424;2023-11-21T09:44:54;8.63;;;3.97;;
71975;SDS011;68326;52.124;5.424;2023-11-21T09:47:25;11.07;;;4.40;;
71975;SDS011;68326;52.124;5.424;2023-11-21T09:49:51;12.10;;;4.37;;
71975;SDS011;68326;52.124;5.424;2023-11-21T09:52:27;11.40;;;4.78;;
71975;SDS011;68326;52.124;5.424;2023-11-21T09:54:55;9.30;;;4.05;;
71975;SDS011;68326;52.124;5.424;2023-11-21T09:57:24;11.75;;;4.70;;
71975;SDS011;68326;52.124;5.424;2023-11-21T09:59:52;11.10;;;4.53;;
71975;SDS011;68326;52.124;5.424;2023-11-21T10:02:23;10.43;;;4.40;;
71975;SDS011;68326;52.124;5.424;2023-11-21T10:04:52;11.30;;;4.53;;
71975;SDS011;68326;52.124;5.424;2023-11-21T10:07:20;10.98;;;3.60;;
71975;SDS011;68326;52.124;5.424;2023-11-21T10:09:47;10.05;;;4.00;;
71975;SDS011;68326;52.124;5.424;2023-11-21T10:12:16;8.75;;;4.10;;
71975;SDS011;68326;52.124;5.424;2023-11-21T10:14:43;8.43;;;4.10;;
71975;SDS011;68326;52.124;5.424;2023-11-21T10:17:14;10.93;;;4.28;;
71975;SDS011;68326;52.124;5.424;2023-11-21T10:19:47;10.85;;;3.83;;
71975;SDS011;68326;52.124;5.424;2023-11-21T10:22:15;11.27;;;3.85;;
71975;SDS011;68326;52.124;5.424;2023-11-21T10:24:42;9.93;;;4.40;;
71975;SDS011;68326;52.124;5.424;2023-11-21T10:27:19;7.67;;;3.57;;
71975;SDS011;68326;52.124;5.424;2023-11-21T10:29:45;9.23;;;3.88;;
71975;SDS011;68326;52.124;5.424;2023-11-21T10:32:12;8.70;;;3.13;;
71975;SDS011;68326;52.124;5.424;2023-11-21T10:34:38;7.18;;;3.28;;
71975;SDS011;68326;52.124;5.424;2023-11-21T10:37:14;6.57;;;2.58;;
71975;SDS011;68326;52.124;5.424;2023-11-21T10:39:43;8.37;;;3.13;;
71975;SDS011;68326;52.124;5.424;2023-11-21T10:42:11;7.30;;;3.75;;
71975;SDS011;68326;52.124;5.424;2023-11-21T10:44:38;7.80;;;3.40;;
71975;SDS011;68326;52.124;5.424;2023-11-21T10:47:04;8.15;;;3.08;;
71975;SDS011;68326;52.124;5.424;2023-11-21T10:49:31;7.60;;;3.15;;
71975;SDS011;68326;52.124;5.424;2023-11-21T10:51:59;7.93;;;3.50;;
71975;SDS011;68326;52.124;5.424;2023-11-21T10:54:26;9.60;;;3.10;;
71975;SDS011;68326;52.124;5.424;2023-11-21T10:56:53;7.57;;;3.25;;
71975;SDS011;68326;52.124;5.424;2023-11-21T10:59:23;8.57;;;3.30;;
71975;SDS011;68326;52.124;5.424;2023-11-21T11:01:54;9.93;;;2.92;;
71975;SDS011;68326;52.124;5.424;2023-11-21T11:04:24;6.87;;;2.40;;
71975;SDS011;68326;52.124;5.424;2023-11-21T11:06:57;5.80;;;2.70;;
71975;SDS011;68326;52.124;5.424;2023-11-21T11:09:30;8.55;;;3.38;;
71975;SDS011;68326;52.124;5.424;2023-11-21T11:12:03;7.38;;;3.25;;
71975;SDS011;68326;52.124;5.424;2023-11-21T11:14:31;8.60;;;3.58;;
71975;SDS011;68326;52.124;5.424;2023-11-21T11:16:59;7.93;;;3.87;;
71975;SDS011;68326;52.124;5.424;2023-11-21T11:19:28;8.05;;;3.10;;
71975;SDS011;68326;52.124;5.424;2023-11-21T11:29:58;7.30;;;3.50;;
71975;SDS011;68326;52.124;5.424;2023-11-21T11:32:47;7.93;;;3.65;;
71975;SDS011;68326;52.124;5.424;2023-11-21T11:38:52;10.38;;;3.28;;
71975;SDS011;68326;52.124;5.424;2023-11-21T11:41:26;7.47;;;3.28;;
71975;SDS011;68326;52.124;5.424;2023-11-21T11:43:55;6.67;;;3.33;;
71975;SDS011;68326;52.124;5.424;2023-11-21T11:46:39;7.15;;;3.70;;
71975;SDS011;68326;52.124;5.424;2023-11-21T11:49:08;8.30;;;3.42;;
71975;SDS011;68326;52.124;5.424;2023-11-21T11:51:34;9.52;;;4.07;;
71975;SDS011;68326;52.124;5.424;2023-11-21T11:54:03;9.40;;;4.13;;
71975;SDS011;68326;52.124;5.424;2023-11-21T11:56:33;10.43;;;5.03;;
71975;SDS011;68326;52.124;5.424;2023-11-21T11:59:02;10.48;;;4.55;;
71975;SDS011;68326;52.124;5.424;2023-11-21T12:01:32;10.45;;;4.50;;
71975;SDS011;68326;52.124;5.424;2023-11-21T12:06:46;12.20;;;4.30;;
71975;SDS011;68326;52.124;5.424;2023-11-21T12:09:20;11.03;;;4.47;;
71975;SDS011;68326;52.124;5.424;2023-11-21T12:11:48;7.85;;;3.85;;
71975;SDS011;68326;52.124;5.424;2023-11-21T12:14:15;10.02;;;4.70;;
71975;SDS011;68326;52.124;5.424;2023-11-21T12:16:42;10.85;;;4.90;;
71975;SDS011;68326;52.124;5.424;2023-11-21T12:19:10;10.82;;;4.60;;
71975;SDS011;68326;52.124;5.424;2023-11-21T12:21:37;9.70;;;4.73;;
71975;SDS011;68326;52.124;5.424;2023-11-21T12:24:05;10.55;;;4.90;;
71975;SDS011;68326;52.124;5.424;2023-11-21T12:26:35;10.93;;;5.05;;
71975;SDS011;68326;52.124;5.424;2023-11-21T12:29:05;11.57;;;4.30;;
71975;SDS011;68326;52.124;5.424;2023-11-21T12:31:34;9.35;;;4.13;;
71975;SDS011;68326;52.124;5.424;2023-11-21T12:34:01;13.23;;;5.10;;
71975;SDS011;68326;52.124;5.424;2023-11-21T12:36:28;11.27;;;5.00;;
71975;SDS011;68326;52.124;5.424;2023-11-21T12:38:56;10.50;;;5.03;;
71975;SDS011;68326;52.124;5.424;2023-11-21T12:41:23;14.18;;;5.65;;
71975;SDS011;68326;52.124;5.424;2023-11-21T12:43:49;10.98;;;5.15;;
71975;SDS011;68326;52.124;5.424;2023-11-21T12:46:16;11.37;;;5.23;;
71975;SDS011;68326;52.124;5.424;2023-11-21T12:48:44;12.10;;;5.13;;
71975;SDS011;68326;52.124;5.424;2023-11-21T12:51:14;14.77;;;5.18;;
71975;SDS011;68326;52.124;5.424;2023-11-21T12:53:42;10.63;;;5.07;;
71975;SDS011;68326;52.124;5.424;2023-11-21T12:56:12;12.23;;;5.30;;
71975;SDS011;68326;52.124;5.424;2023-11-21T12:58:44;11.87;;;5.30;;
71975;SDS011;68326;52.124;5.424;2023-11-21T13:01:13;12.15;;;5.40;;
71975;SDS011;68326;52.124;5.424;2023-11-21T13:03:48;13.35;;;5.53;;
71975;SDS011;68326;52.124;5.424;2023-11-21T13:06:17;12.55;;;5.03;;
71975;SDS011;68326;52.124;5.424;2023-11-21T13:08:44;11.30;;;5.10;;
71975;SDS011;68326;52.124;5.424;2023-11-21T13:11:11;10.67;;;5.00;;
71975;SDS011;68326;52.124;5.424;2023-11-21T13:13:41;10.40;;;4.70;;
71975;SDS011;68326;52.124;5.424;2023-11-21T13:16:10;11.95;;;4.72;;
71975;SDS011;68326;52.124;5.424;2023-11-21T13:18:36;10.65;;;5.00;;
71975;SDS011;68326;52.124;5.424;2023-11-21T13:21:08;9.43;;;4.38;;
71975;SDS011;68326;52.124;5.424;2023-11-21T13:23:41;10.10;;;4.63;;
71975;SDS011;68326;52.124;5.424;2023-11-21T13:26:08;8.48;;;3.17;;
71975;SDS011;68326;52.124;5.424;2023-11-21T13:28:35;8.88;;;3.13;;
71975;SDS011;68326;52.124;5.424;2023-11-21T13:31:04;5.03;;;1.88;;
71975;SDS011;68326;52.124;5.424;2023-11-21T13:34:01;4.32;;;1.67;;
71975;SDS011;68326;52.124;5.424;2023-11-21T13:36:32;4.07;;;1.53;;
71975;SDS011;68326;52.124;5.424;2023-11-21T13:39:02;3.15;;;1.10;;
71975;SDS011;68326;52.124;5.424;2023-11-21T13:41:36;3.67;;;1.48;;
71975;SDS011;68326;52.124;5.424;2023-11-21T13:44:04;4.63;;;1.30;;
71975;SDS011;68326;52.124;5.424;2023-11-21T13:46:53;3.53;;;1.40;;
71975;SDS011;68326;52.124;5.424;2023-11-21T13:49:23;5.20;;;1.87;;
71975;SDS011;68326;52.124;5.424;2023-11-21T13:51:49;5.00;;;1.70;;
71975;SDS011;68326;52.124;5.424;2023-11-21T13:54:19;6.03;;;2.55;;
71975;SDS011;68326;52.124;5.424;2023-11-21T13:56:47;7.45;;;2.55;;
71975;SDS011;68326;52.124;5.424;2023-11-21T13:59:16;6.57;;;3.03;;
71975;SDS011;68326;52.124;5.424;2023-11-21T14:01:49;8.77;;;2.97;;
71975;SDS011;68326;52.124;5.424;2023-11-21T14:04:19;8.30;;;3.58;;
71975;SDS011;68326;52.124;5.424;2023-11-21T14:06:57;11.00;;;3.65;;
71975;SDS011;68326;52.124;5.424;2023-11-21T14:09:27;10.13;;;4.20;;
71975;SDS011;68326;52.124;5.424;2023-11-21T14:11:59;11.00;;;4.38;;
71975;SDS011;68326;52.124;5.424;2023-11-21T14:14:27;11.77;;;4.77;;
71975;SDS011;68326;52.124;5.424;2023-11-21T14:16:56;11.63;;;5.15;;
71975;SDS011;68326;52.124;5.424;2023-11-21T14:19:25;11.32;;;4.43;;
71975;SDS011;68326;52.124;5.424;2023-11-21T14:21:58;11.43;;;4.70;;
71975;SDS011;68326;52.124;5.424;2023-11-21T14:24:25;10.43;;;4.78;;
71975;SDS011;68326;52.124;5.424;2023-11-21T14:26:52;12.77;;;4.47;;
71975;SDS011;68326;52.124;5.424;2023-11-21T14:29:19;12.38;;;4.63;;
71975;SDS011;68326;52.124;5.424;2023-11-21T14:31:50;12.65;;;5.18;;
71975;SDS011;68326;52.124;5.424;2023-11-21T14:34:17;13.13;;;4.95;;
71975;SDS011;68326;52.124;5.424;2023-11-21T14:36:48;13.45;;;5.20;;
71975;SDS011;68326;52.124;5.424;2023-11-21T14:39:15;11.67;;;4.73;;
71975;SDS011;68326;52.124;5.424;2023-11-21T14:41:55;13.45;;;5.07;;
71975;SDS011;68326;52.124;5.424;2023-11-21T14:44:22;13.60;;;5.47;;
71975;SDS011;68326;52.124;5.424;2023-11-21T14:46:59;13.65;;;5.40;;
71975;SDS011;68326;52.124;5.424;2023-11-21T14:49:26;15.00;;;5.93;;
71975;SDS011;68326;52.124;5.424;2023-11-21T14:51:59;13.87;;;4.70;;
71975;SDS011;68326;52.124;5.424;2023-11-21T14:54:27;11.52;;;5.32;;
71975;SDS011;68326;52.124;5.424;2023-11-21T14:57:09;15.32;;;5.93;;
71975;SDS011;68326;52.124;5.424;2023-11-21T14:59:44;15.18;;;6.30;;
71975;SDS011;68326;52.124;5.424;2023-11-21T15:02:14;14.07;;;5.88;;
71975;SDS011;68326;52.124;5.424;2023-11-21T15:04:42;14.30;;;6.43;;